Saturday, August 18, 2018, 2:00 PM GMT
Back to Local

CYHM, Hamilton Airport

Location: , , Canada Lat: 43.167
Local Time: 2:00 PM GMT (14:00 GMT) Lon: -79.933
Time Zone: GMT Elev: 777 ft

Show me the last for .
Show Decoded

2018-08-18 13:19 METAR CYHM 181319Z 01009KT 12SM BKN014 BKN020 21/19 A2997 RMK CU5SC1 SLP148
                 DENSITY ALT 1600FT =
2018-08-18 13:00 METAR CYHM 181300Z 02007KT 12SM FEW014 SCT025 BKN090 20/19 A2996 RMK CF2CU2AC2
                 SLP146 DENSITY ALT 1600FT =
2018-08-18 12:00 METAR CYHM 181200Z 02007KT 12SM BKN009 BKN018 BKN110 20/19 A2995 RMK SF5SC2AC1
                 AC TR CIG RAG SLP140 DENSITY ALT 1500FT =
2018-08-18 11:00 METAR CYHM 181100Z 02004KT 10SM BKN008 BKN016 BKN110 19/18 A2994 RMK SF5SC2AC1
                 AC TR SLP138 DENSITY ALT 1400FT =
2018-08-18 10:46 METAR CYHM 181046Z 03004KT 10SM SCT009 BKN030 OVC110 19/18 A2994 RMK CF3SC3AC2
                 SLP137 DENSITY ALT 1400FT =
2018-08-18 10:00 METAR CYHM 181000Z 03006KT 15SM FEW013 FEW040 SCT065 BKN120 19/18 A2993 RMK
                 CF1SC1SC2AC2 SLP135 DENSITY ALT 1400FT =
2018-08-18 09:00 METAR CYHM 180900Z 08006KT 15SM -RA FEW008 OVC085 19/19 A2992 RMK SF2AC6 SLP131
                 DENSITY ALT 1500FT =
2018-08-18 08:54 METAR CYHM 180854Z 07007KT 15SM -RA SCT006 OVC086 19/19 A2992 RMK SF3AC5 SLP131
                 DENSITY ALT 1500FT =
2018-08-18 08:26 METAR CYHM 180826Z 06010KT 15SM RA FEW006 BKN025 OVC055 20/19 A2990 RMK
                 SF2SC3SC3 SLP125 DENSITY ALT 1600FT =
2018-08-18 08:09 METAR CYHM 180809Z 08011G17KT 15SM RA BKN006 OVC053 20/20 A2990 RMK SF5SC3
                 SLP125 DENSITY ALT 1600FT =
2018-08-18 08:00 METAR CYHM 180800Z 08013G20KT 6SM +RA FEW007 OVC029 20/20 A2990 RMK SF2SC6
                 SLP122 DENSITY ALT 1600FT =
2018-08-18 07:00 METAR CYHM 180700Z 01010KT 6SM +RA BKN005 OVC013 20/20 A2990 RMK SF7SC1 SLP122
                 DENSITY ALT 1700FT =
2018-08-18 06:24 METAR CYHM 180624Z 01007KT 6SM +RA OVC006 21/20 A2990 RMK SF8 SLP122 DENSITY ALT
                 1700FT =
2018-08-18 06:00 METAR CYHM 180600Z 03006KT 6SM -SHRA OVC008 21/20 A2990 RMK SC8 CVCTV CLD EMBD
                 SLP124 DENSITY ALT 1700FT =
2018-08-18 05:48 METAR CYHM 180548Z 01004KT 7SM -SHRA OVC007 21/20 A2990 RMK SF8 CVCTV CLD EMBD
                 SLP124 DENSITY ALT 1700FT =
2018-08-18 05:34 METAR CYHM 180534Z 01003KT 7SM -SHRA SCT008 OVC040TCU 20/20 A2990 RMK CF3TCU5
                 SLP123 DENSITY ALT 1700FT =
2018-08-18 05:00 METAR CYHM 180500Z 03005KT 15SM SCT060 OVC095 21/20 A2990 RMK SC3AC5 SLP124
                 DENSITY ALT 1700FT =
2018-08-18 04:00 METAR CYHM 180400Z 03006KT 15SM BKN030 OVC085 21/20 A2991 RMK SC7AC1 SLP128
                 DENSITY ALT 1700FT =
2018-08-18 03:20 METAR CYHM 180320Z 02008KT 15SM FEW006 SCT018 OVC090 21/20 A2991 RMK CF1SC3AC4
                 SLP128 DENSITY ALT 1700FT =
2018-08-18 03:00 METAR CYHM 180300Z 03007KT 15SM BKN015 OVC090 22/21 A2991 RMK SC5AC3 SLP128
                 DENSITY ALT 1800FT =
2018-08-18 02:40 METAR CYHM 180240Z 36005KT 15SM FEW008 SCT042TCU OVC075 22/22 A2991 RMK
                 CF2TCU1AC5 SLP128 DENSITY ALT 1800FT =
2018-08-18 02:00 METAR CYHM 180200Z 33004KT 10SM -SHRA SCT025TCU OVC077 22/21 A2992 RMK TCU3AC5
                 SLP129 DENSITY ALT 1800FT =
2018-08-18 01:00 METAR CYHM 180100Z 31003KT 15SM BKN020TCU OVC090 23/21 A2992 RMK TCU5AC3 SLP129
                 DENSITY ALT 2000FT =
2018-08-18 00:00 METAR CYHM 180000Z 33005KT 15SM VCSH BKN021TCU OVC150 24/21 A2990 RMK TCU6AC2
                 SHWRS E SLP124 DENSITY ALT 2000FT =
2018-08-17 23:00 METAR CYHM 172300Z 26005KT 240V300 15SM FEW025TCU SCT040 BKN130 OVC180 25/22
                 A2989 RMK TCU2SC1AC2AC3 SLP120 DENSITY ALT 2200FT =
2018-08-17 22:00 METAR CYHM 172200Z 24013KT 15SM FEW025TCU SCT060 BKN110 BKN190 26/22 A2988 RMK
                 TCU2SC2AC1AC2 SLP117 DENSITY ALT 2300FT =
2018-08-17 21:00 METAR CYHM 172100Z 26010G17KT 15SM FEW042TCU SCT050 SCT087 BKN220 27/22 A2987
                 RMK TCU2SC1AC1CI3 SLP112 DENSITY ALT 2400FT =
2018-08-17 20:00 METAR CYHM 172000Z 26013KT 15SM BKN029TCU BKN047 BKN090 28/22 A2987 RMK
                 TCU5SC1AC1 AC TR CONTRAILS SLP111 DENSITY ALT 2500FT =
2018-08-17 19:00 METAR CYHM 171900Z 24012KT 15SM FEW030TCU SCT080 BKN220 27/22 A2987 RMK
                 TCU2AC1CI3 SLP114 DENSITY ALT 2500FT =
2018-08-17 18:00 METAR CYHM 171800Z 23011KT 15SM SCT024 BKN032 BKN062 BKN078 27/22 A2988 RMK
                 CU3SC2SC1AC1 SLP117 DENSITY ALT 2400FT =
2018-08-17 17:00 METAR CYHM 171700Z 24012KT 15SM SCT024 BKN032 BKN042 26/22 A2987 RMK CU3SC2SC2
                 SLP113 DENSITY ALT 2400FT =
2018-08-17 16:00 METAR CYHM 171600Z 23011KT 15SM SCT018 BKN030 BKN060 26/23 A2989 RMK CU3SC2SC1
                 SLP119 DENSITY ALT 2300FT =
2018-08-17 15:00 METAR CYHM 171500Z 20009KT 15SM SCT010 BKN042 25/23 A2990 RMK SC3SC4 SLP125
                 DENSITY ALT 2100FT =

Support USWX by starting your Amazon purchase here.